Time;durP1;ratioP1;P1;durP2;ratioP2;P2;SDS_P1;SDS_P2;PMS_P1;PMS_P2;Temp;Humidity;BMP_temperature;BMP_pressure;BME280_temperature;BME280_humidity;BME280_pressure;Samples;Min_cycle;Max_cycle;Signal;HPM_P1;HPM_P2
2021/07/02 00:02:20;;;;;;;1.50;1.40;;;;;;;16.83;71.91;96387.60;127511;1093;26448;-90
2021/07/02 00:04:51;;;;;;;2.53;1.83;;;;;;;16.79;72.08;96392.05;127433;1093;29535;-89
2021/07/02 00:07:23;;;;;;;2.08;1.60;;;;;;;16.73;72.33;96387.17;127447;1093;27502;-92
2021/07/02 00:09:55;;;;;;;2.85;1.85;;;;;;;16.72;72.06;96380.25;127470;1093;27212;-91
2021/07/02 00:12:26;;;;;;;2.53;1.53;;;;;;;16.67;72.45;96385.77;127453;1093;26498;-90
2021/07/02 00:14:58;;;;;;;3.23;1.85;;;;;;;16.62;72.33;96381.39;127388;1093;39623;-90
2021/07/02 00:17:29;;;;;;;2.28;2.08;;;;;;;16.59;72.45;96382.02;127406;1093;32509;-92
2021/07/02 00:20:01;;;;;;;4.10;1.80;;;;;;;16.65;72.25;96379.96;127447;1093;28450;-90
2021/07/02 00:22:33;;;;;;;2.03;1.70;;;;;;;16.68;72.08;96388.16;127419;1092;27764;-92
2021/07/02 00:25:06;;;;;;;3.15;1.78;;;;;;;16.70;72.02;96393.19;127407;1093;28936;-94
2021/07/02 00:27:38;;;;;;;4.63;2.10;;;;;;;16.66;72.25;96390.34;127851;1093;28062;-91
2021/07/02 00:30:11;;;;;;;3.35;1.98;;;;;;;16.65;72.26;96390.67;127813;1093;27811;-89
2021/07/02 00:32:43;;;;;;;3.67;2.00;;;;;;;16.59;72.34;96382.02;127843;1093;37870;-91
2021/07/02 00:35:14;;;;;;;2.78;1.93;;;;;;;16.55;72.37;96373.07;127931;1093;28796;-92
2021/07/02 00:37:45;;;;;;;5.13;2.40;;;;;;;16.53;72.59;96362.69;127908;1092;26656;-91
2021/07/02 00:40:17;;;;;;;3.25;2.20;;;;;;;16.52;72.68;96363.80;127794;1093;30829;-91
2021/07/02 00:42:48;;;;;;;3.98;2.25;;;;;;;16.51;72.74;96362.23;127828;1093;25971;-91
2021/07/02 00:45:20;;;;;;;3.60;2.15;;;;;;;16.48;72.89;96370.91;127849;1093;30145;-92
2021/07/02 00:47:51;;;;;;;2.93;2.10;;;;;;;16.45;73.08;96368.06;127687;1093;27414;-89
2021/07/02 00:50:23;;;;;;;3.45;2.48;;;;;;;16.41;73.30;96365.25;127842;1093;28316;-90
2021/07/02 00:52:55;;;;;;;3.70;2.15;;;;;;;16.39;73.37;96372.83;127841;1092;34588;-90
2021/07/02 00:55:26;;;;;;;3.95;2.65;;;;;;;16.41;73.55;96365.25;127853;1093;28611;-90
2021/07/02 00:57:58;;;;;;;3.85;2.73;;;;;;;16.41;73.79;96375.96;127882;1092;27278;-90
2021/07/02 01:00:30;;;;;;;4.58;2.58;;;;;;;16.41;73.60;96365.25;127833;1093;31974;-90
2021/07/02 01:03:01;;;;;;;3.45;2.50;;;;;;;16.42;73.77;96366.83;127786;1092;33021;-90
2021/07/02 01:05:32;;;;;;;4.88;2.80;;;;;;;16.44;73.83;96363.83;127819;1093;36370;-91
2021/07/02 01:08:05;;;;;;;3.95;2.90;;;;;;;16.45;73.90;96368.06;127831;1093;27676;-90
2021/07/02 01:10:37;;;;;;;4.30;2.70;;;;;;;16.44;73.87;96364.61;127815;1093;28329;-90
2021/07/02 01:13:08;;;;;;;5.83;3.00;;;;;;;16.45;74.09;96368.85;127841;1092;27612;-90
2021/07/02 01:15:40;;;;;;;4.58;2.98;;;;;;;16.47;74.13;96361.31;127856;1092;30386;-91
2021/07/02 01:18:12;;;;;;;4.28;3.23;;;;;;;16.48;74.16;96354.86;127844;1092;27514;-91
2021/07/02 01:20:43;;;;;;;4.68;3.43;;;;;;;16.48;74.41;96351.39;127891;1093;26361;-91
2021/07/02 01:23:15;;;;;;;5.20;3.50;;;;;;;16.50;74.41;96351.85;127924;1093;27589;-90
2021/07/02 01:25:48;;;;;;;3.88;2.90;;;;;;;16.51;74.34;96338.15;127765;1093;27044;-92
2021/07/02 01:28:20;;;;;;;3.75;3.13;;;;;;;16.54;74.22;96345.52;127795;1093;45808;-91
2021/07/02 01:30:51;;;;;;;5.50;3.60;;;;;;;16.56;74.27;96335.28;127831;1093;29990;-92
2021/07/02 01:33:23;;;;;;;6.83;4.30;;;;;;;16.59;74.20;96329.27;127821;1093;26840;-93
2021/07/02 01:35:54;;;;;;;5.08;3.48;;;;;;;16.62;74.07;96335.89;127816;1093;31690;-90
2021/07/02 01:38:26;;;;;;;5.55;3.60;;;;;;;16.61;74.20;96329.76;127787;1093;29658;-91
2021/07/02 01:40:59;;;;;;;5.10;3.98;;;;;;;16.62;74.12;96338.57;127789;1093;30717;-90
2021/07/02 01:43:30;;;;;;;5.80;4.03;;;;;;;16.63;74.14;96340.14;127834;1092;30343;-90
2021/07/02 01:46:01;;;;;;;5.83;4.63;;;;;;;16.61;74.20;96340.47;127814;1093;30209;-90
2021/07/02 01:48:33;;;;;;;8.53;5.53;;;;;;;16.60;74.18;96333.52;127843;1093;31741;-90
2021/07/02 01:51:04;;;;;;;5.15;4.20;;;;;;;16.60;74.13;96333.52;127861;1093;29195;-90
2021/07/02 01:53:36;;;;;;;7.18;4.95;;;;;;;16.58;74.17;96327.70;127823;1093;27880;-91
2021/07/02 01:56:08;;;;;;;10.55;5.50;;;;;;;16.58;74.19;96322.35;127841;1092;28964;-92
2021/07/02 01:58:39;;;;;;;6.65;4.60;;;;;;;16.59;74.31;96329.27;127875;1091;31018;-91
2021/07/02 02:01:11;;;;;;;6.25;4.50;;;;;;;16.57;74.45;96326.14;127864;1093;26459;-91
2021/07/02 02:03:43;;;;;;;7.15;5.10;;;;;;;16.58;74.20;96333.06;127916;1093;27421;-92
2021/07/02 02:06:15;;;;;;;7.68;4.80;;;;;;;16.58;74.13;96335.73;127921;1093;25634;-90
2021/07/02 02:08:46;;;;;;;6.95;4.53;;;;;;;16.63;74.21;96340.92;127819;1093;25203;-91
2021/07/02 02:11:18;;;;;;;5.35;4.03;;;;;;;16.69;74.20;96341.54;127845;1093;23895;-92
2021/07/02 02:13:49;;;;;;;7.90;4.23;;;;;;;16.74;74.10;96340.56;127800;1093;23545;-90
2021/07/02 02:16:20;;;;;;;6.73;3.85;;;;;;;16.79;74.10;96338.50;127819;1093;32908;-92
2021/07/02 02:18:52;;;;;;;5.80;4.03;;;;;;;16.78;73.84;96341.50;127895;1093;26737;-90
2021/07/02 02:21:23;;;;;;;5.77;3.77;;;;;;;16.78;73.94;96347.64;127735;1093;27080;-94
2021/07/02 02:23:55;;;;;;;5.48;3.50;;;;;;;16.80;74.07;96344.63;127873;1093;29373;-94
2021/07/02 02:26:26;;;;;;;5.50;3.60;;;;;;;16.73;73.98;96347.02;127845;1093;34527;-91
2021/07/02 02:28:58;;;;;;;4.93;3.20;;;;;;;16.75;74.08;96344.80;127798;1093;25964;-91
2021/07/02 02:31:29;;;;;;;4.13;3.00;;;;;;;16.78;73.96;96349.53;127859;1093;26822;-92
2021/07/02 02:34:01;;;;;;;4.33;3.40;;;;;;;16.74;74.04;96346.70;127824;1093;29490;-91
2021/07/02 02:36:32;;;;;;;5.38;3.33;;;;;;;16.69;73.79;96346.11;127850;1093;27967;-91
2021/07/02 02:39:04;;;;;;;5.10;3.28;;;;;;;16.58;74.04;96343.77;127893;1093;39307;-91
2021/07/02 02:41:36;;;;;;;4.88;3.33;;;;;;;16.54;74.25;96347.41;127863;1093;30399;-90
2021/07/02 02:44:08;;;;;;;4.35;2.93;;;;;;;16.52;74.13;96355.77;127844;1093;31152;-90
2021/07/02 02:46:40;;;;;;;4.58;3.40;;;;;;;16.46;74.35;96356.26;127836;1093;33012;-92
2021/07/02 02:49:11;;;;;;;5.55;3.00;;;;;;;16.45;74.60;96365.39;128014;1092;31320;-91
2021/07/02 02:51:43;;;;;;;5.15;3.50;;;;;;;16.45;74.44;96360.83;128251;1092;27821;-92
2021/07/02 02:54:15;;;;;;;4.63;3.20;;;;;;;16.49;74.71;96364.45;127891;1093;31825;-94
2021/07/02 02:59:31;;;;;;;4.83;3.28;;;;;;;16.56;74.63;96372.74;127818;1093;37106;-93
2021/07/02 03:02:03;;;;;;;4.65;3.58;;;;;;;16.57;74.63;96379.66;127840;1093;28539;-92
2021/07/02 03:04:35;;;;;;;4.40;3.45;;;;;;;16.63;74.67;96377.61;127696;1093;27105;-92
2021/07/02 03:07:08;;;;;;;4.70;3.55;;;;;;;16.63;74.37;96381.07;127823;1093;30369;-92
2021/07/02 03:09:39;;;;;;;4.35;3.15;;;;;;;16.61;74.35;96385.97;127832;1093;26911;-91
2021/07/02 03:12:11;;;;;;;5.60;3.68;;;;;;;16.62;74.35;96392.10;127835;1093;26327;-92
2021/07/02 03:14:43;;;;;;;5.53;3.25;;;;;;;16.65;74.54;96385.31;127925;1092;26300;-92
2021/07/02 03:17:14;;;;;;;4.65;3.25;;;;;;;16.65;74.44;96382.64;127893;1093;27728;-89
2021/07/02 03:19:45;;;;;;;5.43;3.90;;;;;;;16.67;74.72;96385.77;127879;1092;25574;-91
2021/07/02 03:22:17;;;;;;;6.48;3.63;;;;;;;16.67;74.90;96380.42;127887;1093;30264;-90
2021/07/02 03:24:48;;;;;;;5.63;3.68;;;;;;;16.66;74.66;96387.66;127888;1093;29117;-93
2021/07/02 03:27:20;;;;;;;4.30;3.53;;;;;;;16.64;74.87;96389.88;127894;1093;28302;-90
2021/07/02 03:29:51;;;;;;;5.55;3.93;;;;;;;16.62;74.93;96382.18;127912;1093;27266;-91
2021/07/02 03:32:22;;;;;;;6.20;3.45;;;;;;;16.60;75.03;96387.05;127957;1092;25998;-91
2021/07/02 03:34:54;;;;;;;7.63;3.73;;;;;;;16.59;74.98;96384.69;127913;1093;27279;-91
2021/07/02 03:37:25;;;;;;;5.73;4.00;;;;;;;16.62;75.15;96376.04;127884;1093;26865;-90
2021/07/02 03:39:56;;;;;;;5.35;3.73;;;;;;;16.61;75.30;96372.58;127846;1093;25076;-91
2021/07/02 03:42:28;;;;;;;7.15;4.35;;;;;;;16.61;75.31;96375.26;127920;1092;25232;-91
2021/07/02 03:44:59;;;;;;;6.00;4.03;;;;;;;16.61;75.10;96375.26;127894;1091;25835;-91
2021/07/02 03:47:31;;;;;;;5.40;4.05;;;;;;;16.63;75.60;96373.04;127944;1093;26726;-90
2021/07/02 03:50:03;;;;;;;4.93;3.88;;;;;;;16.66;75.49;96384.98;127910;1093;28085;-91
2021/07/02 03:52:34;;;;;;;7.43;5.43;;;;;;;16.67;75.47;96377.74;127926;1093;27823;-91
2021/07/02 03:55:07;;;;;;;8.08;5.38;;;;;;;16.70;75.30;96375.23;127930;1093;23892;-90
2021/07/02 03:57:38;;;;;;;8.00;6.33;;;;;;;16.72;75.32;96381.04;127925;1093;24514;-89
2021/07/02 04:00:11;;;;;;;10.03;5.90;;;;;;;16.76;75.29;96373.95;127908;1093;23183;-91
2021/07/02 04:02:43;;;;;;;10.05;6.23;;;;;;;16.77;75.19;96377.41;127976;1093;26598;-91
2021/07/02 04:05:15;;;;;;;9.48;6.33;;;;;;;16.78;75.37;96370.95;127951;1093;28185;-90
2021/07/02 04:07:46;;;;;;;8.35;5.58;;;;;;;16.76;75.23;96373.95;127916;1092;26554;-91
2021/07/02 04:10:18;;;;;;;8.45;4.80;;;;;;;16.76;75.33;96373.95;127894;1092;26777;-91
2021/07/02 04:12:50;;;;;;;6.85;5.33;;;;;;;16.75;75.25;96369.71;127917;1092;28708;-90
2021/07/02 04:15:21;;;;;;;8.30;6.63;;;;;;;16.73;75.37;96382.61;127879;1093;25499;-90
2021/07/02 04:17:53;;;;;;;9.88;5.70;;;;;;;16.70;75.53;96377.13;127911;1093;24504;-90
2021/07/02 04:20:25;;;;;;;8.33;5.65;;;;;;;16.68;75.61;96382.02;127891;1093;26670;-90
2021/07/02 04:22:57;;;;;;;9.80;5.28;;;;;;;16.68;75.72;96374.77;127881;1093;25477;-91
2021/07/02 04:25:28;;;;;;;8.93;5.88;;;;;;;16.66;75.59;96370.82;127894;1093;23861;-91
2021/07/02 04:27:59;;;;;;;8.65;6.33;;;;;;;16.67;75.64;96383.91;127872;1092;30414;-90
2021/07/02 04:30:31;;;;;;;8.30;5.58;;;;;;;16.67;75.80;96383.09;127883;1093;30041;-90
2021/07/02 04:33:03;;;;;;;7.00;5.28;;;;;;;16.67;75.70;96383.09;127867;1093;32917;-90
2021/07/02 04:35:34;;;;;;;6.60;5.35;;;;;;;16.68;75.70;96387.38;127878;1092;30379;-90
2021/07/02 04:38:06;;;;;;;7.28;5.50;;;;;;;16.66;75.74;96392.23;127886;1092;24812;-90
2021/07/02 04:40:37;;;;;;;7.88;5.10;;;;;;;16.64;75.85;96395.23;127900;1093;26773;-90
2021/07/02 04:43:09;;;;;;;6.73;5.33;;;;;;;16.62;76.16;96395.56;127871;1093;31800;-90
2021/07/02 04:45:41;;;;;;;8.50;5.60;;;;;;;16.59;76.08;96396.18;127907;1093;32112;-91
2021/07/02 04:48:12;;;;;;;9.18;6.60;;;;;;;16.59;76.20;96395.40;127958;1091;31270;-92
2021/07/02 04:50:43;;;;;;;7.65;6.38;;;;;;;16.60;76.28;96384.37;127897;1093;40523;-90
2021/07/02 04:53:15;;;;;;;7.53;5.58;;;;;;;16.66;76.40;96397.59;129164;1093;27012;-90
2021/07/02 04:55:46;;;;;;;10.53;5.13;;;;;;;16.71;76.34;96406.24;129956;1093;30553;-88
2021/07/02 04:58:18;;;;;;;9.65;6.30;;;;;;;16.72;76.15;96401.67;129062;1092;23199;-89
2021/07/02 05:00:49;;;;;;;11.25;7.33;;;;;;;16.69;76.32;96411.14;127942;1093;26232;-90
2021/07/02 05:03:21;;;;;;;9.68;7.78;;;;;;;16.67;76.32;96412.54;127894;1093;28563;-92
2021/07/02 05:05:52;;;;;;;8.45;6.08;;;;;;;16.69;76.55;96411.14;127867;1093;26970;-93
2021/07/02 05:08:25;;;;;;;9.43;6.38;;;;;;;16.73;76.32;96428.11;127823;1093;29153;-92
2021/07/02 05:10:56;;;;;;;7.83;6.85;;;;;;;16.78;76.49;96427.95;127892;1093;24524;-89
2021/07/02 05:13:28;;;;;;;9.33;6.75;;;;;;;16.75;76.31;96425.93;127894;1092;28642;-90
2021/07/02 05:15:59;;;;;;;8.83;6.93;;;;;;;16.71;76.50;96429.55;127887;1093;26602;-90
2021/07/02 05:18:31;;;;;;;9.98;7.05;;;;;;;16.71;76.63;96424.20;127887;1093;26229;-90
2021/07/02 05:21:02;;;;;;;7.30;6.35;;;;;;;16.68;76.57;96420.28;127908;1093;27303;-91
2021/07/02 05:23:34;;;;;;;8.33;6.63;;;;;;;16.64;76.72;96427.36;127878;1093;35449;-90
2021/07/02 05:26:05;;;;;;;8.18;6.45;;;;;;;16.67;76.95;96425.92;127898;1093;24157;-93
2021/07/02 05:28:37;;;;;;;10.15;7.63;;;;;;;16.65;76.87;96425.47;127915;1093;24152;-90
2021/07/02 05:31:09;;;;;;;7.50;6.58;;;;;;;16.62;76.93;96425.00;127943;1092;25868;-90
2021/07/02 05:33:40;;;;;;;9.18;6.05;;;;;;;16.63;76.39;96437.28;127897;1093;24469;-90
2021/07/02 05:36:11;;;;;;;8.13;5.98;;;;;;;16.60;76.68;96429.87;127915;1093;25564;-90
2021/07/02 05:38:43;;;;;;;7.03;5.83;;;;;;;16.60;76.87;96445.14;127956;1093;25868;-90
2021/07/02 05:41:15;;;;;;;7.63;5.50;;;;;;;16.67;77.14;96431.27;127964;1093;33554;-90
2021/07/02 05:43:49;;;;;;;7.65;5.93;;;;;;;16.69;77.01;96445.16;127805;1093;25403;-87
2021/07/02 05:46:20;;;;;;;7.60;6.05;;;;;;;16.75;77.04;96436.64;127897;1093;27825;-91
2021/07/02 05:48:51;;;;;;;6.45;5.45;;;;;;;16.84;76.48;96433.91;127907;1093;24929;-91
2021/07/02 05:51:23;;;;;;;7.45;5.35;;;;;;;16.90;76.90;96438.77;127931;1093;24744;-92
2021/07/02 05:53:54;;;;;;;5.65;4.35;;;;;;;16.90;76.39;96446.80;127884;1092;27412;-92
2021/07/02 05:56:28;;;;;;;5.30;4.48;;;;;;;16.96;76.15;96438.58;127872;1093;26243;-92
2021/07/02 05:59:01;;;;;;;6.40;4.55;;;;;;;16.97;76.02;96442.82;127875;1093;32135;-91
2021/07/02 06:01:33;;;;;;;7.00;4.88;;;;;;;16.97;75.76;96440.92;127902;1093;25789;-91
2021/07/02 06:04:05;;;;;;;4.75;4.03;;;;;;;17.06;76.09;96443.57;127864;1093;25613;-92
2021/07/02 06:06:36;;;;;;;5.73;4.38;;;;;;;17.15;75.88;96445.08;127891;1093;27350;-92
2021/07/02 06:09:08;;;;;;;6.03;4.98;;;;;;;17.19;75.82;96443.34;127880;1093;23547;-92
2021/07/02 06:11:39;;;;;;;8.98;5.95;;;;;;;17.25;75.58;96451.96;127877;1093;24926;-91
2021/07/02 06:14:11;;;;;;;5.55;4.63;;;;;;;17.23;74.83;96443.47;127895;1093;23147;-91
2021/07/02 06:16:42;;;;;;;4.90;4.40;;;;;;;17.05;74.95;96445.47;127881;1093;24735;-91
2021/07/02 06:19:14;;;;;;;4.13;3.73;;;;;;;16.99;75.41;96449.42;128005;1093;25420;-90
2021/07/02 06:21:45;;;;;;;5.95;3.58;;;;;;;17.05;75.56;96458.86;127946;1093;43204;-92
2021/07/02 06:24:17;;;;;;;4.73;4.15;;;;;;;17.06;75.47;96454.28;127918;1093;26226;-90
2021/07/02 06:26:49;;;;;;;5.58;4.53;;;;;;;16.99;75.47;96452.09;127907;1092;29477;-89
2021/07/02 06:29:20;;;;;;;6.15;4.30;;;;;;;17.00;75.61;96453.67;127939;1093;23587;-89
2021/07/02 06:31:52;;;;;;;6.00;4.60;;;;;;;17.07;75.83;96447.81;127857;1092;23470;-90
2021/07/02 06:34:23;;;;;;;5.25;4.23;;;;;;;17.12;75.94;96447.63;127883;1093;23956;-92
2021/07/02 06:36:55;;;;;;;6.40;4.20;;;;;;;17.14;75.77;96448.86;127917;1093;24089;-91
2021/07/02 06:39:26;;;;;;;5.70;4.20;;;;;;;17.15;75.87;96452.33;127959;1093;23585;-91
2021/07/02 06:41:58;;;;;;;5.30;4.18;;;;;;;17.17;75.76;96455.46;127886;1093;26036;-91
2021/07/02 06:44:29;;;;;;;6.13;4.70;;;;;;;17.13;75.51;96452.66;127886;1093;26362;-92
2021/07/02 06:47:01;;;;;;;6.20;5.25;;;;;;;17.16;75.89;96457.36;127930;1093;26226;-92
2021/07/02 06:49:32;;;;;;;6.20;4.95;;;;;;;17.18;75.72;96457.06;127911;1093;38246;-89
2021/07/02 06:52:04;;;;;;;7.15;5.40;;;;;;;17.18;75.76;96457.84;127953;1093;22817;-92
2021/07/02 06:54:36;;;;;;;9.68;5.58;;;;;;;17.24;76.02;96466.47;127895;1092;23548;-92
2021/07/02 06:57:09;;;;;;;5.98;5.10;;;;;;;17.03;75.22;96463.76;127916;1093;22810;-89
2021/07/02 06:59:40;;;;;;;8.13;5.38;;;;;;;16.92;75.56;96465.22;127958;1092;26288;-89
2021/07/02 07:02:13;;;;;;;6.57;4.53;;;;;;;16.79;75.43;96461.65;127918;1093;31750;-90
2021/07/02 07:04:47;;;;;;;8.38;4.83;;;;;;;16.66;75.92;96464.50;127967;1093;25717;-92
2021/07/02 07:07:18;;;;;;;8.63;6.30;;;;;;;16.66;76.86;96459.15;127958;1093;23596;-90
2021/07/02 07:09:59;;;;;;;7.53;6.65;;;;;;;16.79;77.41;96471.58;127891;1093;28413;-89
2021/07/02 07:12:30;;;;;;;8.58;6.70;;;;;;;16.81;77.55;96466.68;127847;1093;32199;-92
2021/07/02 07:15:02;;;;;;;9.23;7.10;;;;;;;16.73;77.44;96462.91;127836;1093;29850;-90
2021/07/02 07:17:35;;;;;;;8.63;6.73;;;;;;;16.70;77.88;96460.89;127871;1093;28736;-91
2021/07/02 07:20:08;;;;;;;10.53;6.70;;;;;;;16.64;77.60;96456.80;127865;1093;32841;-89
2021/07/02 07:22:42;;;;;;;8.03;6.17;;;;;;;16.58;77.71;96461.52;127880;1093;27653;-90
2021/07/02 07:25:14;;;;;;;8.18;6.13;;;;;;;16.66;78.41;96461.83;127876;1093;50632;-90
2021/07/02 07:27:47;;;;;;;7.63;5.98;;;;;;;16.53;78.79;96461.70;127944;1093;27080;-91
2021/07/02 07:30:19;;;;;;;8.00;6.60;;;;;;;16.44;79.02;96463.61;127895;1093;34407;-90
2021/07/02 07:32:53;;;;;;;9.73;7.38;;;;;;;16.32;79.44;96474.18;127826;1093;37842;-90
2021/07/02 07:35:28;;;;;;;8.68;7.03;;;;;;;16.20;80.21;96476.74;127841;1093;34642;-92
2021/07/02 07:38:00;;;;;;;7.53;6.50;;;;;;;16.10;80.32;96467.15;127869;1093;28797;-90
2021/07/02 07:40:33;;;;;;;7.40;6.60;;;;;;;16.08;80.47;96469.36;127876;1093;31507;-90
2021/07/02 07:43:06;;;;;;;8.93;7.70;;;;;;;16.13;80.86;96473.75;127877;1093;26293;-91
2021/07/02 07:45:41;;;;;;;9.63;7.60;;;;;;;16.18;81.00;96474.36;127916;1093;26114;-90
2021/07/02 07:48:12;;;;;;;9.18;7.50;;;;;;;16.21;81.20;96467.61;127874;1093;26098;-90
2021/07/02 07:50:47;;;;;;;9.93;6.83;;;;;;;16.23;81.21;96479.56;127944;1093;24719;-90
2021/07/02 07:53:19;;;;;;;8.88;6.23;;;;;;;16.17;81.06;96486.16;127903;1091;26379;-90
2021/07/02 07:55:51;;;;;;;7.38;6.38;;;;;;;16.14;81.32;96491.37;127902;1093;27144;-90
2021/07/02 07:58:23;;;;;;;9.88;7.28;;;;;;;16.10;81.65;96482.41;127897;1092;24397;-91
2021/07/02 08:00:54;;;;;;;8.20;7.28;;;;;;;16.13;81.97;96490.58;127892;1093;25651;-91
2021/07/02 08:03:26;;;;;;;9.10;6.70;;;;;;;16.19;82.10;96485.88;127933;1093;24702;-91
2021/07/02 08:05:57;;;;;;;8.35;6.68;;;;;;;16.16;82.29;96502.53;127898;1093;46909;-92
2021/07/02 08:08:29;;;;;;;8.33;6.83;;;;;;;16.06;82.13;96494.85;127947;1093;26473;-90
2021/07/02 08:11:01;;;;;;;6.98;5.80;;;;;;;15.97;82.33;96500.19;127932;1093;25938;-94
2021/07/02 08:13:34;;;;;;;7.25;6.18;;;;;;;15.95;82.40;96500.51;127852;1093;28624;-91
2021/07/02 08:16:07;;;;;;;7.70;6.68;;;;;;;16.00;82.55;96503.02;127862;1093;33134;-89
2021/07/02 08:18:38;;;;;;;7.25;5.95;;;;;;;16.10;82.78;96493.11;127903;1093;30388;-91
2021/07/02 08:21:10;;;;;;;8.73;7.03;;;;;;;16.15;82.86;96495.61;127838;1093;34693;-90
2021/07/02 08:23:42;;;;;;;10.75;7.03;;;;;;;16.21;82.69;96499.71;127868;1091;27730;-95
2021/07/02 08:26:14;;;;;;;9.45;7.20;;;;;;;16.24;82.92;96491.05;128072;1093;33641;-90
2021/07/02 08:31:35;;;;;;;6.88;6.08;;;;;;;16.29;83.13;96490.88;127846;1091;31215;-89
2021/07/02 08:34:07;;;;;;;6.98;6.28;;;;;;;16.27;82.83;96493.08;127901;1093;25862;-89
2021/07/02 08:36:39;;;;;;;8.23;6.90;;;;;;;16.27;82.79;96493.08;127891;1093;28988;-89
2021/07/02 08:39:11;;;;;;;7.95;6.85;;;;;;;16.21;82.81;96505.06;127862;1093;29110;-89
2021/07/02 08:41:43;;;;;;;9.40;8.20;;;;;;;16.18;83.11;96500.32;127901;1093;31440;-90
2021/07/02 08:44:15;;;;;;;10.10;7.55;;;;;;;16.25;83.52;96500.64;127945;1093;31956;-90
2021/07/02 08:46:48;;;;;;;8.73;6.98;;;;;;;16.34;83.48;96501.42;127908;1092;28329;-91
2021/07/02 08:49:21;;;;;;;8.40;6.93;;;;;;;16.42;82.94;96500.61;127887;1093;26583;-89
2021/07/02 08:51:53;;;;;;;7.33;6.30;;;;;;;16.46;82.83;96498.86;127899;1093;34325;-91
2021/07/02 08:54:25;;;;;;;5.35;4.75;;;;;;;16.55;82.84;96498.84;127995;1092;28200;-89
2021/07/02 08:56:57;;;;;;;6.38;4.83;;;;;;;16.66;82.93;96499.30;127927;1091;27876;-90
2021/07/02 08:59:31;;;;;;;4.23;3.83;;;;;;;16.73;82.85;96495.04;127902;1091;29710;-89
2021/07/02 09:02:04;;;;;;;4.73;3.88;;;;;;;16.81;82.61;96486.20;127868;1093;28992;-90
2021/07/02 09:04:39;;;;;;;5.28;4.73;;;;;;;16.86;82.58;96493.27;127885;1093;27014;-90
2021/07/02 09:07:13;;;;;;;4.63;4.23;;;;;;;16.97;82.69;96489.13;127865;1093;34128;-90
2021/07/02 09:09:59;;;;;;;6.33;4.93;;;;;;;17.03;82.51;96501.25;127971;1093;31386;-91
2021/07/02 09:12:34;;;;;;;4.90;4.25;;;;;;;17.06;81.86;96497.92;127848;1092;31435;-90
2021/07/02 09:15:13;;;;;;;5.35;4.83;;;;;;;17.03;81.87;96497.77;127930;1093;28751;-91
2021/07/02 09:17:58;;;;;;;5.08;4.18;;;;;;;17.04;81.94;96491.33;128216;1093;25094;-90
2021/07/02 09:20:35;;;;;;;5.13;4.13;;;;;;;17.05;81.88;96491.00;128177;1092;23821;-91
2021/07/02 09:23:09;;;;;;;5.20;4.70;;;;;;;17.07;81.90;96486.10;128128;1092;27858;-91
2021/07/02 09:25:46;;;;;;;4.73;4.23;;;;;;;17.03;81.63;96493.22;128186;1092;30158;-89
2021/07/02 09:28:21;;;;;;;5.13;3.85;;;;;;;17.05;82.12;96490.22;128393;1093;23566;-86
2021/07/02 09:30:54;;;;;;;4.55;3.98;;;;;;;17.13;82.16;96486.69;128400;1091;26216;-90
2021/07/02 09:33:27;;;;;;;3.85;3.55;;;;;;;17.04;81.40;96489.43;128139;1091;57395;-89
2021/07/02 09:36:00;;;;;;;3.95;3.53;;;;;;;16.99;81.96;96492.27;127968;1093;93062;-90
2021/07/02 09:38:38;;;;;;;4.23;3.43;;;;;;;17.03;82.14;96481.69;128085;1092;59792;-90
2021/07/02 09:41:11;;;;;;;4.08;3.68;;;;;;;17.10;82.28;96482.77;128034;1092;47452;-90
2021/07/02 09:43:43;;;;;;;4.55;3.35;;;;;;;17.19;82.18;96490.77;127947;1093;49326;-90
2021/07/02 09:46:15;;;;;;;4.00;3.60;;;;;;;17.21;82.04;96489.34;126413;1093;1793619;-90
2021/07/02 09:48:48;;;;;;;3.70;3.40;;;;;;;17.25;81.85;96484.11;127957;1093;63160;-89
2021/07/02 09:51:27;;;;;;;3.50;3.20;;;;;;;17.31;82.29;96484.70;127895;1093;60853;-89
2021/07/02 09:54:09;;;;;;;4.28;3.88;;;;;;;17.28;82.21;96490.71;127922;1092;24561;-90
2021/07/02 09:56:41;;;;;;;4.13;3.70;;;;;;;17.27;81.72;96491.82;127856;1092;54440;-90
2021/07/02 09:59:19;;;;;;;3.73;3.30;;;;;;;17.33;81.97;96495.91;127909;1093;52270;-91
2021/07/02 10:01:51;;;;;;;5.40;3.83;;;;;;;17.37;81.84;96494.92;127974;1093;58849;-91
2021/07/02 10:04:22;;;;;;;4.90;4.25;;;;;;;17.44;81.54;96497.08;127832;1092;71034;-91
2021/07/02 10:07:14;;;;;;;4.36;3.68;;;;;;;17.44;81.19;96497.08;126232;1091;2136727;-90
2021/07/02 10:09:47;;;;;;;4.55;4.15;;;;;;;17.50;80.87;96496.58;128567;1093;53094;-91
2021/07/02 10:12:22;;;;;;;4.93;4.30;;;;;;;17.57;80.87;96504.09;126322;1093;2032901;-90
2021/07/02 10:14:56;;;;;;;5.10;4.50;;;;;;;17.63;80.66;96500.13;128663;1093;23962;-91
2021/07/02 10:17:29;;;;;;;4.50;3.73;;;;;;;17.60;79.99;96498.10;128942;1092;23880;-89
2021/07/02 10:20:01;;;;;;;4.38;3.98;;;;;;;17.57;79.87;96496.05;128652;1093;23812;-89
2021/07/02 10:22:34;;;;;;;4.53;4.08;;;;;;;17.63;80.05;96497.45;126275;1093;1997585;-89
2021/07/02 10:25:07;;;;;;;5.10;4.20;;;;;;;17.62;79.84;96497.77;127830;1093;59284;-91
2021/07/02 10:27:48;;;;;;;4.38;3.85;;;;;;;17.68;79.42;96491.91;128075;1091;66577;-89
2021/07/02 10:30:20;;;;;;;4.33;3.68;;;;;;;17.72;79.35;96492.03;129040;1092;44714;-89
2021/07/02 10:32:58;;;;;;;4.60;3.90;;;;;;;17.77;79.07;96500.69;128078;1092;51036;-89
2021/07/02 10:35:33;;;;;;;5.15;4.43;;;;;;;17.79;79.01;96497.67;128132;1092;23779;-91
2021/07/02 10:38:06;;;;;;;5.00;4.38;;;;;;;17.81;78.88;96500.81;128100;1092;59160;-91
2021/07/02 10:40:41;;;;;;;6.10;4.48;;;;;;;17.82;78.90;96498.91;128256;1092;49673;-91
2021/07/02 10:43:18;;;;;;;4.95;4.38;;;;;;;17.87;79.02;96499.48;128034;1092;28004;-91
2021/07/02 10:46:15;;;;;;;4.45;4.05;;;;;;;17.92;78.59;96503.89;128000;1092;25851;-92
2021/07/02 10:49:02;;;;;;;5.70;4.13;;;;;;;17.94;78.43;96499.77;127898;1093;24427;-92
2021/07/02 10:51:45;;;;;;;5.28;4.35;;;;;;;17.90;78.26;96498.08;127969;1091;25533;-92
2021/07/02 10:54:31;;;;;;;6.25;4.60;;;;;;;17.89;78.38;96502.66;127922;1093;27967;-92
2021/07/02 10:57:17;;;;;;;5.48;4.38;;;;;;;17.99;78.12;96496.09;127844;1093;25644;-94
2021/07/02 11:00:13;;;;;;;4.73;4.30;;;;;;;18.06;78.28;96504.41;127814;1093;28781;-91
2021/07/02 11:02:46;;;;;;;6.15;4.68;;;;;;;18.14;78.37;96498.16;127919;1091;29510;-93
2021/07/02 11:05:37;;;;;;;6.70;5.13;;;;;;;18.27;78.84;96491.73;127941;1093;27138;-92
2021/07/02 11:08:10;;;;;;;10.50;5.50;;;;;;;18.42;78.24;96497.59;127871;1093;26492;-93
2021/07/02 11:10:59;;;;;;;6.03;5.43;;;;;;;18.48;77.66;96501.66;127966;1091;26239;-93
2021/07/02 11:13:51;;;;;;;5.83;5.10;;;;;;;18.46;77.35;96498.52;127878;1091;29633;-93
2021/07/02 11:16:23;;;;;;;5.68;4.85;;;;;;;18.57;78.02;96499.65;127877;1093;27111;-92
2021/07/02 11:18:54;;;;;;;5.85;5.25;;;;;;;18.67;77.50;96491.99;127863;1093;26060;-93
2021/07/02 11:21:27;;;;;;;5.98;5.25;;;;;;;18.71;76.79;96484.05;127910;1091;24476;-93
2021/07/02 11:23:59;;;;;;;6.23;5.40;;;;;;;18.82;77.45;96485.19;127883;1093;24594;-92
2021/07/02 11:26:49;;;;;;;6.93;5.43;;;;;;;18.88;76.82;96473.13;127878;1093;23965;-92
2021/07/02 11:29:38;;;;;;;6.68;5.68;;;;;;;18.95;76.70;96469.88;127872;1093;29699;-93
2021/07/02 11:32:30;;;;;;;6.20;5.60;;;;;;;19.14;77.11;96466.61;127848;1093;24656;-92
2021/07/02 11:35:22;;;;;;;6.73;5.20;;;;;;;19.24;76.12;96469.64;127846;1093;25709;-93
2021/07/02 11:38:08;;;;;;;7.00;5.27;;;;;;;19.29;75.45;96463.27;127889;1092;23778;-92
2021/07/02 11:40:41;;;;;;;7.35;6.45;;;;;;;19.29;75.84;96460.59;127885;1093;25855;-91
2021/07/02 11:43:13;;;;;;;6.35;5.60;;;;;;;19.46;76.61;96449.58;127896;1092;24382;-90
2021/07/02 11:45:47;;;;;;;6.63;5.33;;;;;;;19.58;75.52;96439.95;127948;1093;26303;-92
2021/07/02 11:48:33;;;;;;;5.88;5.28;;;;;;;19.75;76.37;96450.44;127864;1092;31137;-90
2021/07/02 11:51:07;;;;;;;7.23;5.43;;;;;;;19.79;74.71;96433.27;127926;1093;25127;-92
2021/07/02 11:53:40;;;;;;;6.70;5.93;;;;;;;19.80;74.56;96439.42;127911;1091;23385;-92
2021/07/02 11:56:14;;;;;;;5.95;5.38;;;;;;;19.89;74.21;96441.98;127887;1092;26850;-92
2021/07/02 11:58:48;;;;;;;9.20;6.03;;;;;;;20.02;73.81;96435.43;127927;1093;24696;-92